Time;durP1;ratioP1;P1;durP2;ratioP2;P2;SDS_P1;SDS_P2;PMS_P1;PMS_P2;Temp;Humidity;BMP_temperature;BMP_pressure;BME280_temperature;BME280_humidity;BME280_pressure;Samples;Min_cycle;Max_cycle;Signal;HPM_P1;HPM_P2
2023/05/21 00:01:41;;;;;;;7.45;2.20;;;13.20;99.90;;;;;;5088945;28;20046;-65
2023/05/21 00:04:06;;;;;;;5.57;2.30;;;13.20;99.90;;;;;;5087464;28;20054;-64
2023/05/21 00:06:36;;;;;;;2.47;1.80;;;13.20;99.90;;;;;;5082941;27;20043;-65
2023/05/21 00:09:03;;;;;;;6.20;2.22;;;13.20;99.90;;;;;;5110287;27;20296;-62
2023/05/21 00:11:29;;;;;;;2.60;2.10;;;13.20;99.90;;;;;;5110740;27;20122;-62
2023/05/21 00:13:54;;;;;;;4.43;2.05;;;13.20;99.90;;;;;;5110776;27;20125;-63
2023/05/21 00:16:21;;;;;;;3.97;2.00;;;13.10;99.90;;;;;;5097104;28;20443;-66
2023/05/21 00:18:48;;;;;;;3.75;2.17;;;13.20;99.90;;;;;;5072955;28;20058;-62
2023/05/21 00:21:21;;;;;;;8.43;2.20;;;13.20;99.90;;;;;;5090688;28;20052;-68
2023/05/21 00:23:48;;;;;;;6.18;2.33;;;13.20;99.90;;;;;;5090267;28;20054;-69
2023/05/21 00:26:14;;;;;;;2.72;2.10;;;13.20;99.90;;;;;;5089706;28;20128;-73
2023/05/21 00:28:40;;;;;;;3.17;2.50;;;13.20;99.90;;;;;;5090525;28;20039;-62
2023/05/21 00:31:06;;;;;;;5.10;2.83;;;13.20;99.90;;;;;;5098930;28;20051;-71
2023/05/21 00:33:32;;;;;;;3.28;2.50;;;13.20;99.90;;;;;;5072680;28;20047;-62
2023/05/21 00:35:58;;;;;;;3.03;2.15;;;13.20;99.90;;;;;;5089396;28;20067;-67
2023/05/21 00:38:26;;;;;;;4.63;2.63;;;13.20;99.90;;;;;;5090252;28;20055;-70
2023/05/21 00:40:52;;;;;;;3.15;2.53;;;13.20;99.90;;;;;;5091101;28;20078;-64
2023/05/21 00:43:18;;;;;;;3.38;2.60;;;13.20;99.90;;;;;;5089917;28;20462;-69
2023/05/21 00:45:46;;;;;;;8.40;3.45;;;13.10;99.90;;;;;;5090183;28;20054;-63
2023/05/21 00:48:13;;;;;;;7.03;2.35;;;13.20;99.90;;;;;;5089849;28;20056;-67
2023/05/21 00:50:40;;;;;;;3.17;2.85;;;13.20;99.90;;;;;;5090249;27;20085;-69
2023/05/21 00:53:09;;;;;;;4.43;2.92;;;13.20;99.90;;;;;;5097613;28;20482;-61
2023/05/21 00:55:36;;;;;;;4.35;2.75;;;13.20;99.90;;;;;;5089473;28;20051;-70
2023/05/21 00:58:03;;;;;;;4.20;2.50;;;13.20;99.90;;;;;;5072558;28;20047;-65
2023/05/21 01:00:32;;;;;;;5.30;2.28;;;13.20;99.90;;;;;;5072417;28;20039;-67
2023/05/21 01:02:58;;;;;;;5.35;2.58;;;13.10;99.90;;;;;;5097066;28;20084;-68
2023/05/21 01:05:23;;;;;;;3.25;2.50;;;13.20;99.90;;;;;;5088704;28;20472;-70
2023/05/21 01:07:49;;;;;;;3.97;2.83;;;13.10;99.90;;;;;;5073095;28;20088;-67
2023/05/21 01:10:15;;;;;;;6.43;2.90;;;13.10;99.90;;;;;;5089149;28;20048;-65
2023/05/21 01:12:43;;;;;;;12.10;2.55;;;13.10;99.90;;;;;;5078796;28;20592;-64
2023/05/21 01:15:10;;;;;;;7.88;2.60;;;13.10;99.90;;;;;;5072352;28;20063;-66
2023/05/21 01:17:36;;;;;;;4.68;2.53;;;13.10;99.90;;;;;;5074298;27;20084;-68
2023/05/21 01:20:09;;;;;;;7.75;2.90;;;13.10;99.90;;;;;;5107563;27;20500;-62
2023/05/21 01:22:42;;;;;;;3.42;2.83;;;13.00;99.90;;;;;;5106921;27;20051;-64
2023/05/21 01:25:09;;;;;;;4.30;2.60;;;13.00;99.90;;;;;;5105384;27;20602;-68
2023/05/21 01:27:35;;;;;;;4.72;2.70;;;13.00;99.90;;;;;;5108688;27;20047;-70
2023/05/21 01:30:01;;;;;;;3.38;2.78;;;13.00;99.90;;;;;;5106057;27;20062;-70
2023/05/21 01:32:39;;;;;;;4.90;2.75;;;12.90;99.90;;;;;;5106718;27;20047;-62
2023/05/21 01:35:21;;;;;;;5.38;2.80;;;12.90;99.90;;;;;;5109637;27;20055;-66
2023/05/21 01:38:23;;;;;;;6.30;2.75;;;12.90;99.90;;;;;;5109135;27;20038;-64
2023/05/21 01:40:57;;;;;;;4.05;2.50;;;12.90;99.90;;;;;;5056429;27;20059;-66
2023/05/21 01:43:26;;;;;;;8.25;2.90;;;12.80;99.90;;;;;;5098323;27;20043;-63
2023/05/21 01:45:54;;;;;;;7.63;2.80;;;12.80;99.90;;;;;;5109079;27;20039;-65
2023/05/21 01:48:23;;;;;;;5.13;2.42;;;12.80;99.90;;;;;;5106753;27;20427;-63
2023/05/21 01:50:50;;;;;;;4.57;2.53;;;12.80;99.90;;;;;;5108406;27;20058;-64
2023/05/21 01:53:16;;;;;;;6.20;3.10;;;12.80;99.90;;;;;;5091825;27;20397;-69
2023/05/21 01:55:42;;;;;;;5.25;2.70;;;12.70;99.90;;;;;;5108346;27;20062;-70
2023/05/21 01:58:08;;;;;;;7.43;3.10;;;12.70;99.90;;;;;;5101933;28;20040;-63
2023/05/21 02:00:36;;;;;;;4.75;2.88;;;12.70;99.90;;;;;;5108536;27;20073;-61
2023/05/21 02:03:02;;;;;;;7.95;3.38;;;12.70;99.90;;;;;;5102025;27;20047;-67
2023/05/21 02:05:27;;;;;;;4.50;2.35;;;12.60;99.90;;;;;;5091395;27;20050;-72
2023/05/21 02:07:53;;;;;;;7.85;3.03;;;12.70;99.90;;;;;;5081792;28;20498;-63
2023/05/21 02:10:19;;;;;;;11.75;3.25;;;12.60;99.90;;;;;;5071391;28;20063;-62
2023/05/21 02:12:45;;;;;;;4.15;3.25;;;12.60;99.90;;;;;;5104802;28;20397;-63
2023/05/21 02:15:13;;;;;;;8.20;3.72;;;12.60;99.90;;;;;;5104764;28;20127;-63
2023/05/21 02:17:39;;;;;;;5.93;3.30;;;12.60;99.90;;;;;;5089347;27;20059;-70
2023/05/21 02:20:14;;;;;;;5.50;2.80;;;12.60;99.90;;;;;;5096952;27;20103;-63
2023/05/21 02:22:42;;;;;;;6.32;3.08;;;12.50;99.90;;;;;;5076028;27;20051;-66
2023/05/21 02:25:09;;;;;;;7.55;3.35;;;12.50;99.90;;;;;;5108521;27;20504;-65
2023/05/21 02:27:36;;;;;;;5.47;2.88;;;12.50;99.90;;;;;;5107509;27;20434;-67
2023/05/21 02:30:07;;;;;;;9.18;3.00;;;12.50;99.90;;;;;;5080684;27;20082;-65
2023/05/21 02:32:33;;;;;;;9.32;3.10;;;12.50;99.90;;;;;;5106028;27;20082;-67
2023/05/21 02:35:02;;;;;;;6.85;2.90;;;12.40;99.90;;;;;;5091350;27;20531;-63
2023/05/21 02:37:28;;;;;;;6.75;2.65;;;12.40;99.90;;;;;;5107928;27;20057;-64
2023/05/21 02:39:54;;;;;;;6.90;3.17;;;12.40;99.90;;;;;;5100160;27;20043;-65
2023/05/21 02:42:23;;;;;;;8.13;3.33;;;12.40;99.90;;;;;;5091578;27;20039;-62
2023/05/21 02:44:50;;;;;;;7.93;3.55;;;12.40;99.90;;;;;;5090269;27;20137;-72
2023/05/21 02:47:17;;;;;;;7.80;3.28;;;12.40;99.90;;;;;;5108558;27;20058;-69
2023/05/21 02:49:43;;;;;;;10.55;3.17;;;12.40;99.90;;;;;;5105927;27;20113;-64
2023/05/21 02:52:09;;;;;;;6.07;2.83;;;12.40;99.90;;;;;;5108097;28;20042;-68
2023/05/21 02:54:34;;;;;;;5.25;2.95;;;12.40;99.90;;;;;;5090251;28;20043;-68
2023/05/21 02:57:00;;;;;;;5.40;3.20;;;12.30;99.90;;;;;;5093400;27;20043;-62
2023/05/21 02:59:26;;;;;;;8.40;2.92;;;12.30;99.90;;;;;;5073520;27;20043;-66
2023/05/21 03:01:52;;;;;;;7.70;2.97;;;12.30;99.90;;;;;;5078603;28;20118;-65
2023/05/21 03:04:20;;;;;;;4.82;2.45;;;12.30;99.90;;;;;;5087587;28;20919;-71
2023/05/21 03:06:53;;;;;;;9.82;3.22;;;12.30;99.90;;;;;;5103460;28;20055;-65
2023/05/21 03:09:23;;;;;;;5.10;2.65;;;12.30;99.90;;;;;;5107773;28;20039;-67
2023/05/21 03:11:49;;;;;;;4.53;3.00;;;12.30;99.90;;;;;;5090242;28;20043;-65
2023/05/21 03:14:15;;;;;;;5.38;2.60;;;12.30;99.90;;;;;;5091246;28;20054;-64
2023/05/21 03:16:42;;;;;;;6.07;2.55;;;12.30;99.90;;;;;;5106715;28;20142;-63
2023/05/21 03:19:12;;;;;;;5.35;2.53;;;12.30;99.90;;;;;;5089830;28;20043;-64
2023/05/21 03:21:38;;;;;;;4.45;2.60;;;12.30;99.90;;;;;;5078177;28;20039;-67
2023/05/21 03:24:05;;;;;;;5.85;2.83;;;12.30;99.90;;;;;;5107590;28;20059;-65
2023/05/21 03:26:31;;;;;;;10.90;3.28;;;12.30;99.90;;;;;;5108140;28;20051;-62
2023/05/21 03:28:57;;;;;;;6.65;3.58;;;12.30;99.90;;;;;;5106952;28;20252;-68
2023/05/21 03:31:24;;;;;;;5.32;2.97;;;12.30;99.90;;;;;;5078072;28;20043;-62
2023/05/21 03:33:51;;;;;;;9.25;2.95;;;12.30;99.90;;;;;;5107318;28;20063;-64
2023/05/21 03:36:17;;;;;;;7.30;2.78;;;12.30;99.90;;;;;;5090965;28;20055;-65
2023/05/21 03:38:43;;;;;;;9.63;2.95;;;12.30;99.90;;;;;;5090085;28;20066;-65
2023/05/21 03:41:10;;;;;;;8.48;3.40;;;12.30;99.90;;;;;;5106008;28;20090;-65
2023/05/21 03:43:36;;;;;;;4.90;2.70;;;12.30;99.90;;;;;;5110633;27;20398;-72
2023/05/21 03:46:01;;;;;;;15.82;2.97;;;12.30;99.90;;;;;;5110626;27;20066;-67
2023/05/21 03:48:27;;;;;;;7.35;2.95;;;12.30;99.90;;;;;;5094430;27;20039;-68
2023/05/21 03:50:53;;;;;;;7.03;2.58;;;12.30;99.90;;;;;;5110411;27;20045;-62
2023/05/21 03:53:18;;;;;;;5.97;2.78;;;12.30;99.90;;;;;;5111775;27;20480;-64
2023/05/21 03:55:44;;;;;;;9.00;2.50;;;12.30;99.90;;;;;;5085648;28;20744;-66
2023/05/21 03:58:10;;;;;;;3.08;2.40;;;12.40;99.90;;;;;;5105233;27;20047;-71
2023/05/21 04:00:36;;;;;;;6.90;2.92;;;12.40;99.90;;;;;;5111685;27;20054;-67
2023/05/21 04:03:03;;;;;;;5.05;2.65;;;12.40;99.90;;;;;;5098975;28;20048;-70
2023/05/21 04:05:29;;;;;;;12.00;3.30;;;12.40;99.90;;;;;;5110068;27;20051;-65
2023/05/21 04:07:57;;;;;;;5.78;2.70;;;12.40;99.90;;;;;;5105566;27;20054;-64
2023/05/21 04:10:23;;;;;;;5.38;2.60;;;12.40;99.90;;;;;;5111928;27;20119;-66
2023/05/21 04:12:51;;;;;;;12.02;2.90;;;12.40;99.90;;;;;;5110183;27;20035;-67
2023/05/21 04:15:17;;;;;;;5.00;2.58;;;12.40;99.90;;;;;;5111016;27;20167;-66
2023/05/21 04:17:44;;;;;;;12.02;2.75;;;12.40;99.90;;;;;;5089911;27;20097;-67
2023/05/21 04:20:15;;;;;;;6.57;2.80;;;12.40;99.90;;;;;;5110655;27;20143;-63
2023/05/21 04:22:42;;;;;;;5.60;2.80;;;12.40;99.90;;;;;;5111199;27;20098;-70
2023/05/21 04:25:08;;;;;;;10.55;2.83;;;12.40;99.90;;;;;;5110038;27;20043;-64
2023/05/21 04:27:35;;;;;;;5.78;2.97;;;12.40;99.90;;;;;;5111145;27;20049;-69
2023/05/21 04:30:03;;;;;;;4.70;2.58;;;12.50;99.90;;;;;;5104418;28;20529;-67
2023/05/21 04:32:33;;;;;;;4.88;2.72;;;12.50;99.90;;;;;;5075876;28;20125;-63
2023/05/21 04:35:00;;;;;;;4.35;2.22;;;12.60;99.90;;;;;;5109980;27;20040;-68
2023/05/21 04:37:30;;;;;;;7.68;2.80;;;12.60;99.90;;;;;;5110102;27;20050;-68
2023/05/21 04:39:56;;;;;;;5.22;2.50;;;12.60;99.90;;;;;;5078085;27;20127;-68
2023/05/21 04:42:25;;;;;;;8.13;3.00;;;12.50;99.90;;;;;;5097574;28;20036;-66
2023/05/21 04:44:50;;;;;;;5.25;2.75;;;12.60;99.90;;;;;;5107239;28;20058;-62
2023/05/21 04:47:19;;;;;;;4.20;2.58;;;12.60;99.90;;;;;;5089972;28;20485;-62
2023/05/21 04:49:49;;;;;;;7.97;2.30;;;12.60;99.90;;;;;;5090691;28;20123;-70
2023/05/21 04:52:15;;;;;;;9.18;2.60;;;12.60;99.90;;;;;;5084885;28;20062;-68
2023/05/21 04:54:41;;;;;;;5.40;3.15;;;12.60;99.90;;;;;;5105197;28;20048;-69
2023/05/21 04:57:07;;;;;;;8.63;2.00;;;12.60;99.90;;;;;;5106168;28;20070;-69
2023/05/21 04:59:34;;;;;;;6.43;2.35;;;12.60;99.90;;;;;;5089571;28;20050;-68
2023/05/21 05:02:00;;;;;;;3.35;2.47;;;12.60;99.90;;;;;;5102886;27;20043;-62
2023/05/21 05:04:25;;;;;;;6.95;2.50;;;12.70;99.90;;;;;;5090985;27;20059;-67
2023/05/21 05:06:51;;;;;;;10.55;4.63;;;12.80;99.90;;;;;;5110000;27;20076;-67
2023/05/21 05:09:20;;;;;;;2.28;2.10;;;12.80;99.90;;;;;;5110005;27;20393;-70
2023/05/21 05:11:46;;;;;;;3.90;2.38;;;12.90;99.90;;;;;;5099574;28;20394;-63
2023/05/21 05:14:11;;;;;;;7.60;2.50;;;12.90;99.90;;;;;;5088986;27;20043;-69
2023/05/21 05:16:37;;;;;;;4.63;2.70;;;13.00;99.90;;;;;;5108357;27;20051;-64
2023/05/21 05:19:03;;;;;;;8.75;2.92;;;13.10;99.90;;;;;;5076016;27;20477;-67
2023/05/21 05:21:29;;;;;;;4.30;2.45;;;13.10;99.90;;;;;;5102975;28;20496;-66
2023/05/21 05:23:55;;;;;;;5.57;2.90;;;13.00;99.90;;;;;;5068632;27;20061;-66
2023/05/21 05:26:21;;;;;;;11.57;3.13;;;13.10;99.90;;;;;;5092400;27;20485;-66
2023/05/21 05:28:47;;;;;;;9.90;2.45;;;13.00;99.90;;;;;;5106402;27;20504;-68
2023/05/21 05:31:12;;;;;;;5.18;2.53;;;13.10;99.90;;;;;;5051486;28;20071;-66
2023/05/21 05:33:39;;;;;;;7.10;2.33;;;13.10;99.90;;;;;;5091849;27;20051;-63
2023/05/21 05:36:05;;;;;;;10.50;3.03;;;13.10;99.90;;;;;;5091631;27;20047;-62
2023/05/21 05:38:31;;;;;;;7.72;2.50;;;13.20;99.90;;;;;;5112250;27;20043;-62
2023/05/21 05:40:57;;;;;;;6.25;2.80;;;13.20;99.90;;;;;;5091845;27;20126;-65
2023/05/21 05:43:25;;;;;;;7.55;2.42;;;13.20;99.90;;;;;;5092174;27;20051;-69
2023/05/21 05:45:51;;;;;;;7.95;2.30;;;13.20;99.90;;;;;;5092757;27;20051;-69
2023/05/21 05:48:16;;;;;;;9.52;2.60;;;13.30;99.90;;;;;;5075218;27;20051;-65
2023/05/21 05:50:43;;;;;;;6.68;2.28;;;13.30;99.90;;;;;;5109031;27;20425;-62
2023/05/21 05:53:12;;;;;;;6.18;2.47;;;13.40;99.90;;;;;;5089672;27;20125;-62
2023/05/21 05:55:38;;;;;;;9.55;2.50;;;13.40;99.90;;;;;;5109152;27;20553;-70
2023/05/21 05:58:04;;;;;;;8.40;2.45;;;13.40;99.90;;;;;;5108851;27;20051;-66
2023/05/21 06:00:30;;;;;;;7.88;2.63;;;13.30;99.90;;;;;;5071545;27;20047;-64
2023/05/21 06:02:56;;;;;;;5.30;2.83;;;13.30;99.90;;;;;;5102983;27;20088;-62
2023/05/21 06:05:22;;;;;;;7.28;2.85;;;13.30;99.90;;;;;;5106771;27;20108;-68
2023/05/21 06:07:47;;;;;;;8.20;2.60;;;13.20;99.90;;;;;;5108753;27;20060;-66
2023/05/21 06:10:13;;;;;;;7.80;2.63;;;13.20;99.90;;;;;;5108204;27;20047;-69
2023/05/21 06:12:39;;;;;;;6.32;2.78;;;13.30;99.90;;;;;;5108277;27;20043;-69
2023/05/21 06:15:06;;;;;;;9.25;2.38;;;13.30;99.90;;;;;;5108904;27;20071;-69
2023/05/21 06:17:31;;;;;;;5.93;2.45;;;13.40;99.90;;;;;;5087635;27;20066;-66
2023/05/21 06:19:57;;;;;;;7.70;2.45;;;13.40;99.90;;;;;;5105801;28;20055;-68
2023/05/21 06:22:23;;;;;;;7.47;2.70;;;13.50;99.90;;;;;;5107695;27;20501;-67
2023/05/21 06:24:49;;;;;;;4.05;2.55;;;13.50;99.90;;;;;;5109237;27;20064;-64
2023/05/21 06:27:15;;;;;;;4.53;2.63;;;13.60;99.90;;;;;;5074754;27;20468;-67
2023/05/21 06:29:41;;;;;;;6.70;2.30;;;13.60;99.90;;;;;;5090056;27;20042;-62
2023/05/21 06:32:09;;;;;;;6.70;2.50;;;13.70;99.90;;;;;;5089502;27;20125;-65
2023/05/21 06:34:35;;;;;;;5.57;2.53;;;13.80;99.90;;;;;;5107718;27;20125;-66
2023/05/21 06:37:02;;;;;;;5.60;2.60;;;13.80;99.90;;;;;;5108357;27;20046;-65
2023/05/21 06:39:28;;;;;;;4.55;2.40;;;13.80;99.90;;;;;;5075859;28;20043;-67
2023/05/21 06:41:54;;;;;;;3.60;2.08;;;13.90;99.90;;;;;;5103873;27;20088;-63
2023/05/21 06:44:19;;;;;;;8.77;2.30;;;13.90;99.90;;;;;;5108008;27;20047;-64
2023/05/21 06:46:45;;;;;;;5.18;2.40;;;13.80;99.90;;;;;;5108201;27;20474;-67
2023/05/21 06:49:12;;;;;;;6.15;2.83;;;13.90;99.90;;;;;;5091346;27;20043;-69
2023/05/21 06:51:38;;;;;;;5.63;2.53;;;13.90;99.90;;;;;;5107248;27;20050;-69
2023/05/21 06:54:04;;;;;;;6.55;2.40;;;13.90;99.90;;;;;;5106083;27;20039;-74
2023/05/21 06:56:30;;;;;;;4.78;2.25;;;13.90;99.90;;;;;;5073597;27;20047;-66
2023/05/21 06:58:56;;;;;;;4.70;2.72;;;13.90;99.90;;;;;;5108674;27;20092;-71
2023/05/21 07:01:23;;;;;;;11.10;2.70;;;13.90;99.90;;;;;;5096051;28;20397;-66
2023/05/21 07:03:49;;;;;;;7.35;2.70;;;13.80;99.90;;;;;;5073210;28;20122;-72
2023/05/21 07:06:15;;;;;;;6.40;2.58;;;13.80;99.90;;;;;;5087801;28;20611;-64
2023/05/21 07:08:41;;;;;;;7.82;2.65;;;13.80;99.90;;;;;;5069704;28;20031;-66
2023/05/21 07:11:07;;;;;;;15.48;2.67;;;13.90;99.90;;;;;;5070641;28;20122;-65
2023/05/21 07:13:35;;;;;;;5.53;2.72;;;13.90;99.90;;;;;;5052738;28;20974;-66
2023/05/21 07:16:01;;;;;;;4.43;2.55;;;14.00;99.90;;;;;;5091782;28;20074;-71
2023/05/21 07:18:26;;;;;;;8.13;2.72;;;14.00;99.90;;;;;;5100377;28;20736;-72
2023/05/21 07:20:52;;;;;;;6.68;2.67;;;14.00;99.90;;;;;;5125759;27;20036;-68
2023/05/21 07:23:20;;;;;;;9.60;3.00;;;14.10;99.90;;;;;;5091020;28;20039;-68
2023/05/21 07:25:46;;;;;;;13.07;3.53;;;14.10;99.90;;;;;;5091649;28;20531;-67
2023/05/21 07:28:11;;;;;;;5.85;2.75;;;14.20;99.90;;;;;;5075036;28;20043;-67
2023/05/21 07:30:37;;;;;;;8.07;2.60;;;14.30;99.90;;;;;;5093807;28;20077;-70
2023/05/21 07:33:03;;;;;;;5.07;2.28;;;14.30;99.90;;;;;;5091946;28;20079;-72
2023/05/21 07:35:29;;;;;;;5.80;2.33;;;14.30;99.90;;;;;;5124324;27;20123;-63
2023/05/21 07:37:54;;;;;;;11.23;2.50;;;14.40;99.90;;;;;;5091979;28;20059;-67
2023/05/21 07:40:20;;;;;;;8.05;2.67;;;14.50;99.90;;;;;;5091564;27;20424;-71
2023/05/21 07:42:46;;;;;;;6.68;2.65;;;14.60;99.90;;;;;;5125771;27;20040;-72
2023/05/21 07:45:12;;;;;;;4.13;2.63;;;14.60;99.90;;;;;;5090608;28;20036;-66
2023/05/21 07:47:37;;;;;;;5.43;2.40;;;14.60;99.90;;;;;;5090958;28;20155;-69
2023/05/21 07:50:04;;;;;;;5.70;2.35;;;14.70;99.90;;;;;;5074019;28;20048;-66
2023/05/21 07:52:29;;;;;;;5.70;2.70;;;14.80;99.90;;;;;;5124289;27;20061;-72
2023/05/21 07:54:55;;;;;;;4.03;2.15;;;14.80;99.90;;;;;;5092142;28;20047;-64
2023/05/21 07:57:22;;;;;;;8.05;2.60;;;14.80;99.90;;;;;;5089878;28;20048;-64
2023/05/21 07:59:47;;;;;;;7.65;2.53;;;14.70;99.90;;;;;;5074691;28;20047;-70
2023/05/21 08:02:13;;;;;;;8.30;2.20;;;14.70;99.90;;;;;;5073603;28;20490;-75
2023/05/21 08:04:39;;;;;;;5.65;2.22;;;14.70;99.90;;;;;;5073690;28;20906;-66
2023/05/21 08:07:05;;;;;;;8.80;2.83;;;14.80;99.90;;;;;;5074957;28;20113;-67
2023/05/21 08:09:31;;;;;;;7.43;2.25;;;14.80;99.90;;;;;;5095604;27;20043;-66
2023/05/21 08:11:56;;;;;;;9.85;2.25;;;14.90;99.90;;;;;;5087386;28;20090;-69
2023/05/21 08:14:22;;;;;;;6.95;2.58;;;15.00;99.90;;;;;;5072120;28;20040;-68
2023/05/21 08:16:48;;;;;;;7.30;2.80;;;15.10;99.90;;;;;;5089626;28;20052;-68
2023/05/21 08:19:14;;;;;;;4.15;1.92;;;15.20;99.90;;;;;;5097482;27;20039;-70
2023/05/21 08:21:40;;;;;;;10.88;2.92;;;15.30;99.90;;;;;;5090300;28;20052;-69
2023/05/21 08:24:06;;;;;;;5.40;2.17;;;15.40;99.90;;;;;;5123946;27;20056;-70
2023/05/21 08:26:32;;;;;;;6.82;2.50;;;15.50;99.90;;;;;;5059347;28;20047;-69
2023/05/21 08:28:58;;;;;;;3.88;2.35;;;15.50;99.90;;;;;;5090762;28;20397;-72
2023/05/21 08:31:23;;;;;;;5.07;2.35;;;15.60;99.90;;;;;;5081138;28;20051;-66
2023/05/21 08:33:51;;;;;;;4.07;2.40;;;15.60;98.90;;;;;;5073419;28;20043;-68
2023/05/21 08:36:17;;;;;;;6.22;2.80;;;15.70;99.90;;;;;;5089333;28;20059;-78
2023/05/21 08:38:43;;;;;;;7.05;2.25;;;15.70;98.90;;;;;;5129649;27;20394;-68
2023/05/21 08:41:10;;;;;;;7.50;3.05;;;15.70;99.90;;;;;;5095705;28;20054;-64
2023/05/21 08:43:38;;;;;;;11.98;2.70;;;15.80;99.90;;;;;;5078585;28;20115;-74
2023/05/21 08:46:05;;;;;;;10.30;2.45;;;15.90;99.90;;;;;;5089768;28;20039;-72
2023/05/21 08:48:31;;;;;;;4.93;2.55;;;15.90;98.00;;;;;;5069479;27;20089;-76
2023/05/21 08:50:59;;;;;;;9.05;2.65;;;16.00;99.60;;;;;;5067954;27;20110;-75
2023/05/21 08:53:28;;;;;;;7.00;2.45;;;16.00;99.50;;;;;;5083142;27;20414;-73
2023/05/21 08:55:56;;;;;;;4.95;2.65;;;16.10;99.10;;;;;;5064340;28;20044;-73
2023/05/21 08:58:22;;;;;;;8.75;2.83;;;16.10;97.30;;;;;;5085131;28;20482;-74
2023/05/21 09:00:48;;;;;;;6.10;2.30;;;16.30;95.60;;;;;;5087006;28;20101;-81
2023/05/21 09:03:15;;;;;;;5.20;2.63;;;16.30;97.00;;;;;;5076102;28;20436;-76
2023/05/21 09:05:42;;;;;;;5.38;2.65;;;16.30;99.90;;;;;;5096923;28;20055;-75
2023/05/21 09:08:17;;;;;;;4.22;2.72;;;16.40;96.60;;;;;;5108850;27;20058;-76
2023/05/21 09:10:49;;;;;;;5.53;2.45;;;16.60;99.90;;;;;;5104305;27;20039;-69
2023/05/21 09:13:16;;;;;;;3.95;2.53;;;16.50;96.90;;;;;;5109188;27;20051;-70
2023/05/21 09:15:44;;;;;;;5.38;2.25;;;16.60;97.40;;;;;;5092670;28;20046;-70
2023/05/21 09:18:11;;;;;;;8.48;3.13;;;16.60;95.40;;;;;;5073000;28;20094;-73
2023/05/21 09:20:37;;;;;;;9.40;2.83;;;16.60;93.60;;;;;;5071981;28;20520;-75
2023/05/21 09:23:04;;;;;;;7.65;2.97;;;16.60;91.90;;;;;;5071648;28;20101;-79
2023/05/21 09:25:30;;;;;;;3.80;2.17;;;16.60;95.10;;;;;;5088738;28;20058;-69
2023/05/21 09:27:57;;;;;;;8.10;2.78;;;16.40;93.30;;;;;;5088815;27;20056;-72
2023/05/21 09:30:23;;;;;;;4.82;2.75;;;16.40;94.80;;;;;;5089172;28;20084;-70
2023/05/21 09:32:55;;;;;;;10.57;2.97;;;16.40;96.80;;;;;;5103101;28;20074;-71
2023/05/21 09:35:21;;;;;;;6.10;2.55;;;16.30;97.80;;;;;;5089039;28;20047;-73
2023/05/21 09:37:49;;;;;;;5.50;2.55;;;16.40;98.30;;;;;;5071129;28;20178;-68
2023/05/21 09:40:20;;;;;;;5.88;2.85;;;16.40;99.90;;;;;;5088650;28;20083;-72
2023/05/21 09:42:55;;;;;;;2.85;2.20;;;16.40;99.40;;;;;;5070999;28;20054;-75
2023/05/21 09:45:27;;;;;;;7.60;2.28;;;16.50;98.60;;;;;;5088157;28;20055;-77
2023/05/21 09:47:54;;;;;;;6.43;2.80;;;16.40;96.80;;;;;;5070316;28;20047;-71
2023/05/21 09:50:27;;;;;;;4.30;2.40;;;16.40;99.90;;;;;;5089295;28;20039;-72
2023/05/21 09:52:54;;;;;;;10.35;2.63;;;16.40;95.20;;;;;;5087823;28;20686;-75
2023/05/21 09:55:25;;;;;;;5.68;2.70;;;16.40;95.50;;;;;;5071716;28;20163;-69
2023/05/21 09:57:51;;;;;;;7.80;2.80;;;16.40;96.20;;;;;;5087678;28;20467;-75
2023/05/21 10:00:20;;;;;;;9.40;2.58;;;16.40;95.20;;;;;;5089338;28;20039;-72
2023/05/21 10:02:53;;;;;;;7.07;2.90;;;16.40;98.00;;;;;;5087261;28;20043;-65
2023/05/21 10:05:19;;;;;;;4.35;2.97;;;16.50;98.00;;;;;;5072130;28;20130;-67
2023/05/21 10:07:52;;;;;;;6.40;3.05;;;16.50;96.00;;;;;;5092208;28;20047;-70
2023/05/21 10:10:20;;;;;;;8.02;3.00;;;16.60;97.50;;;;;;5071192;28;20096;-73
2023/05/21 10:12:48;;;;;;;7.22;2.97;;;16.60;95.60;;;;;;5071211;28;20031;-71
2023/05/21 10:15:16;;;;;;;5.50;2.67;;;16.70;97.10;;;;;;5070714;28;20043;-73
2023/05/21 10:17:45;;;;;;;7.25;3.15;;;16.80;96.10;;;;;;5102067;27;20103;-71
2023/05/21 10:20:12;;;;;;;8.60;3.58;;;17.00;97.60;;;;;;5107961;27;20039;-70
2023/05/21 10:22:39;;;;;;;8.82;3.30;;;17.20;96.00;;;;;;5108174;27;20453;-66
2023/05/21 10:25:08;;;;;;;5.88;3.40;;;17.50;94.90;;;;;;5091855;27;20046;-70
2023/05/21 10:27:36;;;;;;;8.52;3.20;;;17.60;92.40;;;;;;5090025;27;20161;-76
2023/05/21 10:30:04;;;;;;;9.30;3.00;;;17.60;89.70;;;;;;5092059;27;20397;-68
2023/05/21 10:32:31;;;;;;;8.35;3.15;;;17.50;88.60;;;;;;5095332;27;20046;-74
2023/05/21 10:34:57;;;;;;;6.07;3.20;;;17.50;88.30;;;;;;5107711;27;20058;-71
2023/05/21 10:37:25;;;;;;;5.28;3.30;;;17.40;92.80;;;;;;5105607;27;20055;-69
2023/05/21 10:39:51;;;;;;;8.27;3.22;;;17.30;91.50;;;;;;5097576;28;20040;-71
2023/05/21 10:42:41;;;;;;;4.60;3.28;;;17.40;95.20;;;;;;5121436;27;20070;-68
2023/05/21 10:45:20;;;;;;;8.57;3.83;;;17.30;94.10;;;;;;5120279;27;20043;-73
2023/05/21 10:48:01;;;;;;;8.82;3.72;;;17.30;99.10;;;;;;5121376;27;20051;-73
2023/05/21 10:50:46;;;;;;;11.02;3.75;;;17.40;95.40;;;;;;5087914;28;20044;-74
2023/05/21 10:53:43;;;;;;;9.23;4.07;;;17.50;97.20;;;;;;5087839;28;20127;-65
2023/05/21 10:56:30;;;;;;;6.88;4.28;;;17.50;96.50;;;;;;5098326;28;20055;-70
2023/05/21 10:59:17;;;;;;;6.63;3.90;;;17.60;98.40;;;;;;5065675;28;20043;-71
2023/05/21 11:01:43;;;;;;;11.05;3.92;;;17.80;98.10;;;;;;5082905;28;20055;-74
2023/05/21 11:04:11;;;;;;;5.78;4.10;;;17.90;96.10;;;;;;5087638;28;20043;-67
2023/05/21 11:06:36;;;;;;;16.27;4.13;;;18.00;97.20;;;;;;5086971;28;20060;-72
2023/05/21 11:09:12;;;;;;;9.68;4.95;;;18.00;97.00;;;;;;5123744;27;20367;-69
2023/05/21 11:11:43;;;;;;;7.00;4.00;;;18.20;99.50;;;;;;5081157;28;20103;-73
2023/05/21 11:14:55;;;;;;;12.48;4.70;;;18.20;99.90;;;;;;5089481;28;20385;-65
2023/05/21 11:17:40;;;;;;;10.52;4.80;;;18.20;91.80;;;;;;5060868;28;20087;-71
2023/05/21 11:20:12;;;;;;;9.57;4.72;;;18.30;98.10;;;;;;5074918;28;20090;-74
2023/05/21 11:22:38;;;;;;;10.52;5.18;;;18.30;97.00;;;;;;5082849;28;20040;-71
2023/05/21 11:25:05;;;;;;;13.00;5.35;;;18.30;98.10;;;;;;5086619;28;20036;-65
2023/05/21 11:27:39;;;;;;;6.88;4.72;;;18.40;98.70;;;;;;5070600;28;20158;-74
2023/05/21 11:30:14;;;;;;;10.00;4.95;;;18.30;95.80;;;;;;5067220;28;20044;-67
2023/05/21 11:33:14;;;;;;;10.27;5.03;;;18.30;97.70;;;;;;5082271;28;20066;-76
2023/05/21 11:35:50;;;;;;;8.18;5.22;;;18.30;95.40;;;;;;5087145;28;20044;-77
2023/05/21 11:38:16;;;;;;;10.05;5.20;;;18.40;99.90;;;;;;5087005;28;20052;-68
2023/05/21 11:40:53;;;;;;;9.82;5.53;;;18.50;96.90;;;;;;5122373;28;20443;-75
2023/05/21 11:43:19;;;;;;;10.15;6.50;;;18.40;96.50;;;;;;5050535;28;20478;-67
2023/05/21 11:45:46;;;;;;;12.93;6.68;;;18.40;99.40;;;;;;5079757;28;20049;-64
2023/05/21 11:48:16;;;;;;;10.30;6.85;;;18.30;98.90;;;;;;5087181;28;20055;-69
2023/05/21 11:50:42;;;;;;;10.15;7.15;;;18.30;98.30;;;;;;5086276;28;20154;-69
2023/05/21 11:53:08;;;;;;;8.40;6.40;;;18.30;96.20;;;;;;5073550;28;20040;-64
2023/05/21 11:55:42;;;;;;;11.20;7.07;;;18.30;99.90;;;;;;5086897;28;20049;-69
2023/05/21 11:58:12;;;;;;;12.43;8.00;;;18.50;99.90;;;;;;5086937;28;20550;-74
2023/05/21 12:00:39;;;;;;;12.40;7.32;;;18.60;97.30;;;;;;5087131;28;20071;-70
2023/05/21 12:03:11;;;;;;;17.50;6.78;;;18.70;97.80;;;;;;5070513;28;20089;-67
2023/05/21 12:05:45;;;;;;;11.07;7.25;;;18.60;99.00;;;;;;5073971;28;20517;-71
2023/05/21 12:08:11;;;;;;;16.55;8.35;;;18.70;99.90;;;;;;5073545;28;20502;-74
2023/05/21 12:10:38;;;;;;;16.52;7.85;;;19.00;99.90;;;;;;5106856;28;20130;-69
2023/05/21 12:13:05;;;;;;;10.82;7.40;;;19.00;99.90;;;;;;5106317;28;20043;-70
2023/05/21 12:15:31;;;;;;;10.32;8.00;;;19.10;99.90;;;;;;5084061;28;20093;-70
2023/05/21 12:17:57;;;;;;;11.35;7.68;;;19.30;99.90;;;;;;5072133;28;20067;-69
2023/05/21 12:20:25;;;;;;;18.98;9.43;;;19.40;97.10;;;;;;5071578;28;20040;-70
2023/05/21 12:22:50;;;;;;;10.82;8.32;;;19.60;97.90;;;;;;5091461;27;20057;-68
2023/05/21 12:25:20;;;;;;;13.13;8.15;;;19.70;99.90;;;;;;5089124;28;20043;-66
2023/05/21 12:27:49;;;;;;;14.85;8.45;;;19.90;97.30;;;;;;5073411;28;20485;-77
2023/05/21 12:30:15;;;;;;;15.90;8.10;;;20.00;98.70;;;;;;5073277;28;20043;-69
2023/05/21 12:32:42;;;;;;;12.30;8.07;;;19.90;88.80;;;;;;5089740;28;20382;-77
2023/05/21 12:35:08;;;;;;;13.85;7.97;;;19.80;93.80;;;;;;5092364;27;20128;-70
2023/05/21 12:37:34;;;;;;;12.15;8.18;;;19.90;98.20;;;;;;5065251;28;20087;-71
2023/05/21 12:40:06;;;;;;;17.67;8.60;;;20.10;98.50;;;;;;5079808;28;20044;-65
2023/05/21 12:42:33;;;;;;;13.10;8.40;;;20.20;91.90;;;;;;5086628;28;20067;-66
2023/05/21 12:45:07;;;;;;;15.82;8.32;;;20.10;94.90;;;;;;5089651;28;20039;-71
2023/05/21 12:47:33;;;;;;;10.80;6.95;;;20.00;93.80;;;;;;5090869;27;20051;-67
2023/05/21 12:50:03;;;;;;;12.60;7.80;;;20.00;97.20;;;;;;5071834;28;20100;-75